sensor_id;sensor_type;location;lat;lon;timestamp;P1;durP1;ratioP1;P2;durP2;ratioP2
38937;SDS011;24727;51.974;20.868;2022-07-23T00:00:04;16.55;;;12.60;;
38937;SDS011;24727;51.974;20.868;2022-07-23T00:02:31;13.50;;;11.80;;
38937;SDS011;24727;51.974;20.868;2022-07-23T00:04:57;13.18;;;10.75;;
38937;SDS011;24727;51.974;20.868;2022-07-23T00:07:29;14.35;;;11.52;;
38937;SDS011;24727;51.974;20.868;2022-07-23T00:09:55;13.30;;;11.07;;
38937;SDS011;24727;51.974;20.868;2022-07-23T00:12:21;14.85;;;10.43;;
38937;SDS011;24727;51.974;20.868;2022-07-23T00:14:53;14.80;;;11.27;;
38937;SDS011;24727;51.974;20.868;2022-07-23T00:17:19;12.15;;;10.95;;
38937;SDS011;24727;51.974;20.868;2022-07-23T00:19:46;13.18;;;11.70;;
38937;SDS011;24727;51.974;20.868;2022-07-23T00:22:14;15.25;;;11.23;;
38937;SDS011;24727;51.974;20.868;2022-07-23T00:24:39;13.02;;;11.68;;
38937;SDS011;24727;51.974;20.868;2022-07-23T00:29:43;16.10;;;11.82;;
38937;SDS011;24727;51.974;20.868;2022-07-23T00:32:08;12.60;;;11.18;;
38937;SDS011;24727;51.974;20.868;2022-07-23T00:34:34;12.45;;;11.15;;
38937;SDS011;24727;51.974;20.868;2022-07-23T00:37:01;12.00;;;10.70;;
38937;SDS011;24727;51.974;20.868;2022-07-23T00:41:57;12.20;;;10.85;;
38937;SDS011;24727;51.974;20.868;2022-07-23T00:44:24;13.90;;;11.60;;
38937;SDS011;24727;51.974;20.868;2022-07-23T00:46:56;17.10;;;12.07;;
38937;SDS011;24727;51.974;20.868;2022-07-23T00:49:25;14.75;;;11.13;;
38937;SDS011;24727;51.974;20.868;2022-07-23T00:51:53;14.57;;;11.20;;
38937;SDS011;24727;51.974;20.868;2022-07-23T00:54:25;14.48;;;10.95;;
38937;SDS011;24727;51.974;20.868;2022-07-23T00:56:52;12.43;;;11.13;;
38937;SDS011;24727;51.974;20.868;2022-07-23T00:59:18;14.88;;;11.35;;
38937;SDS011;24727;51.974;20.868;2022-07-23T01:01:45;18.25;;;11.65;;
38937;SDS011;24727;51.974;20.868;2022-07-23T01:04:12;13.13;;;11.00;;
38937;SDS011;24727;51.974;20.868;2022-07-23T01:06:43;12.85;;;10.63;;
38937;SDS011;24727;51.974;20.868;2022-07-23T01:09:10;15.70;;;11.13;;
38937;SDS011;24727;51.974;20.868;2022-07-23T01:11:37;16.70;;;11.93;;
38937;SDS011;24727;51.974;20.868;2022-07-23T01:14:10;20.17;;;11.93;;
38937;SDS011;24727;51.974;20.868;2022-07-23T01:16:41;16.13;;;11.77;;
38937;SDS011;24727;51.974;20.868;2022-07-23T01:19:10;20.73;;;11.47;;
38937;SDS011;24727;51.974;20.868;2022-07-23T01:21:37;20.77;;;14.25;;
38937;SDS011;24727;51.974;20.868;2022-07-23T01:24:05;16.52;;;11.57;;
38937;SDS011;24727;51.974;20.868;2022-07-23T01:26:33;17.27;;;12.50;;
38937;SDS011;24727;51.974;20.868;2022-07-23T01:29:01;14.43;;;12.02;;
38937;SDS011;24727;51.974;20.868;2022-07-23T01:31:30;17.95;;;11.90;;
38937;SDS011;24727;51.974;20.868;2022-07-23T01:33:56;19.45;;;11.60;;
38937;SDS011;24727;51.974;20.868;2022-07-23T01:36:22;17.75;;;11.52;;
38937;SDS011;24727;51.974;20.868;2022-07-23T01:38:48;14.88;;;11.70;;
38937;SDS011;24727;51.974;20.868;2022-07-23T01:41:15;20.05;;;12.68;;
38937;SDS011;24727;51.974;20.868;2022-07-23T01:43:42;15.27;;;11.95;;
38937;SDS011;24727;51.974;20.868;2022-07-23T01:46:08;11.88;;;10.68;;
38937;SDS011;24727;51.974;20.868;2022-07-23T01:48:34;22.83;;;12.50;;
38937;SDS011;24727;51.974;20.868;2022-07-23T01:51:01;17.08;;;11.82;;
38937;SDS011;24727;51.974;20.868;2022-07-23T01:53:27;15.32;;;11.65;;
38937;SDS011;24727;51.974;20.868;2022-07-23T01:55:53;15.80;;;12.05;;
38937;SDS011;24727;51.974;20.868;2022-07-23T01:58:19;15.45;;;12.10;;
38937;SDS011;24727;51.974;20.868;2022-07-23T02:00:45;14.57;;;12.13;;
38937;SDS011;24727;51.974;20.868;2022-07-23T02:03:11;13.25;;;11.85;;
38937;SDS011;24727;51.974;20.868;2022-07-23T02:05:37;13.35;;;11.57;;
38937;SDS011;24727;51.974;20.868;2022-07-23T02:08:04;13.80;;;12.30;;
38937;SDS011;24727;51.974;20.868;2022-07-23T02:10:30;15.73;;;11.82;;
38937;SDS011;24727;51.974;20.868;2022-07-23T02:12:57;14.50;;;11.13;;
38937;SDS011;24727;51.974;20.868;2022-07-23T02:15:23;13.40;;;11.95;;
38937;SDS011;24727;51.974;20.868;2022-07-23T02:17:49;16.55;;;11.60;;
38937;SDS011;24727;51.974;20.868;2022-07-23T02:20:15;14.50;;;12.82;;
38937;SDS011;24727;51.974;20.868;2022-07-23T02:22:41;17.58;;;11.93;;
38937;SDS011;24727;51.974;20.868;2022-07-23T02:25:08;17.02;;;11.80;;
38937;SDS011;24727;51.974;20.868;2022-07-23T02:27:35;13.73;;;12.32;;
38937;SDS011;24727;51.974;20.868;2022-07-23T02:30:01;14.30;;;12.27;;
38937;SDS011;24727;51.974;20.868;2022-07-23T02:32:28;14.60;;;11.18;;
38937;SDS011;24727;51.974;20.868;2022-07-23T02:34:55;17.95;;;12.60;;
38937;SDS011;24727;51.974;20.868;2022-07-23T02:37:21;13.70;;;10.70;;
38937;SDS011;24727;51.974;20.868;2022-07-23T02:39:47;12.63;;;11.23;;
38937;SDS011;24727;51.974;20.868;2022-07-23T02:42:14;16.58;;;12.10;;
38937;SDS011;24727;51.974;20.868;2022-07-23T02:44:41;17.23;;;11.95;;
38937;SDS011;24727;51.974;20.868;2022-07-23T02:47:07;17.85;;;12.15;;
38937;SDS011;24727;51.974;20.868;2022-07-23T02:49:33;13.48;;;11.93;;
38937;SDS011;24727;51.974;20.868;2022-07-23T02:51:59;15.23;;;11.13;;
38937;SDS011;24727;51.974;20.868;2022-07-23T02:54:25;12.65;;;11.35;;
38937;SDS011;24727;51.974;20.868;2022-07-23T02:56:51;11.95;;;10.65;;
38937;SDS011;24727;51.974;20.868;2022-07-23T02:59:18;16.15;;;11.80;;
38937;SDS011;24727;51.974;20.868;2022-07-23T03:01:45;11.80;;;10.60;;
38937;SDS011;24727;51.974;20.868;2022-07-23T03:04:11;15.18;;;10.77;;
38937;SDS011;24727;51.974;20.868;2022-07-23T03:06:37;13.07;;;11.52;;
38937;SDS011;24727;51.974;20.868;2022-07-23T03:09:04;13.02;;;11.13;;
38937;SDS011;24727;51.974;20.868;2022-07-23T03:11:30;14.48;;;12.75;;
38937;SDS011;24727;51.974;20.868;2022-07-23T03:13:57;13.10;;;11.70;;
38937;SDS011;24727;51.974;20.868;2022-07-23T03:16:23;22.65;;;12.27;;
38937;SDS011;24727;51.974;20.868;2022-07-23T03:18:49;13.68;;;11.85;;
38937;SDS011;24727;51.974;20.868;2022-07-23T03:21:15;15.60;;;12.70;;
38937;SDS011;24727;51.974;20.868;2022-07-23T03:23:42;13.38;;;11.95;;
38937;SDS011;24727;51.974;20.868;2022-07-23T03:26:08;17.77;;;12.50;;
38937;SDS011;24727;51.974;20.868;2022-07-23T03:28:34;21.35;;;12.45;;
38937;SDS011;24727;51.974;20.868;2022-07-23T03:31:00;16.38;;;12.63;;
38937;SDS011;24727;51.974;20.868;2022-07-23T03:33:26;14.55;;;12.18;;
38937;SDS011;24727;51.974;20.868;2022-07-23T03:35:52;19.75;;;12.65;;
38937;SDS011;24727;51.974;20.868;2022-07-23T03:38:19;14.73;;;13.07;;
38937;SDS011;24727;51.974;20.868;2022-07-23T03:40:45;17.00;;;13.52;;
38937;SDS011;24727;51.974;20.868;2022-07-23T03:43:11;17.42;;;13.65;;
38937;SDS011;24727;51.974;20.868;2022-07-23T03:45:37;14.25;;;12.80;;
38937;SDS011;24727;51.974;20.868;2022-07-23T03:48:04;19.27;;;13.27;;
38937;SDS011;24727;51.974;20.868;2022-07-23T03:50:32;15.20;;;13.43;;
38937;SDS011;24727;51.974;20.868;2022-07-23T03:52:59;18.27;;;13.20;;
38937;SDS011;24727;51.974;20.868;2022-07-23T03:55:25;15.45;;;13.60;;
38937;SDS011;24727;51.974;20.868;2022-07-23T03:57:51;18.95;;;13.65;;
38937;SDS011;24727;51.974;20.868;2022-07-23T04:00:18;18.20;;;12.52;;
38937;SDS011;24727;51.974;20.868;2022-07-23T04:02:45;16.52;;;12.48;;
38937;SDS011;24727;51.974;20.868;2022-07-23T04:05:11;17.40;;;14.18;;
38937;SDS011;24727;51.974;20.868;2022-07-23T04:07:39;15.05;;;13.45;;
38937;SDS011;24727;51.974;20.868;2022-07-23T04:10:06;22.00;;;15.80;;
38937;SDS011;24727;51.974;20.868;2022-07-23T04:12:33;20.73;;;17.92;;
38937;SDS011;24727;51.974;20.868;2022-07-23T04:14:59;24.60;;;18.92;;
38937;SDS011;24727;51.974;20.868;2022-07-23T04:17:25;21.13;;;17.80;;
38937;SDS011;24727;51.974;20.868;2022-07-23T04:19:52;21.48;;;17.33;;
38937;SDS011;24727;51.974;20.868;2022-07-23T04:22:18;19.13;;;16.73;;
38937;SDS011;24727;51.974;20.868;2022-07-23T04:24:43;21.80;;;15.75;;
38937;SDS011;24727;51.974;20.868;2022-07-23T04:27:11;21.73;;;15.55;;
38937;SDS011;24727;51.974;20.868;2022-07-23T04:29:37;18.67;;;14.68;;
38937;SDS011;24727;51.974;20.868;2022-07-23T04:32:03;18.90;;;14.68;;
38937;SDS011;24727;51.974;20.868;2022-07-23T04:34:29;15.85;;;13.82;;
38937;SDS011;24727;51.974;20.868;2022-07-23T04:36:56;20.60;;;13.23;;
38937;SDS011;24727;51.974;20.868;2022-07-23T04:39:22;14.68;;;13.18;;
38937;SDS011;24727;51.974;20.868;2022-07-23T04:41:50;17.10;;;14.85;;
38937;SDS011;24727;51.974;20.868;2022-07-23T04:44:15;16.48;;;14.38;;
38937;SDS011;24727;51.974;20.868;2022-07-23T04:46:41;18.85;;;13.80;;
38937;SDS011;24727;51.974;20.868;2022-07-23T04:49:07;14.50;;;13.00;;
38937;SDS011;24727;51.974;20.868;2022-07-23T04:51:33;14.98;;;13.32;;
38937;SDS011;24727;51.974;20.868;2022-07-23T04:53:59;18.40;;;13.77;;
38937;SDS011;24727;51.974;20.868;2022-07-23T04:56:26;15.43;;;13.05;;
38937;SDS011;24727;51.974;20.868;2022-07-23T04:58:52;21.58;;;13.93;;
38937;SDS011;24727;51.974;20.868;2022-07-23T05:01:18;17.15;;;13.90;;
38937;SDS011;24727;51.974;20.868;2022-07-23T05:03:44;16.45;;;13.23;;
38937;SDS011;24727;51.974;20.868;2022-07-23T05:06:10;16.73;;;13.20;;
38937;SDS011;24727;51.974;20.868;2022-07-23T05:08:37;16.95;;;13.18;;
38937;SDS011;24727;51.974;20.868;2022-07-23T05:11:03;14.88;;;12.75;;
38937;SDS011;24727;51.974;20.868;2022-07-23T05:13:28;13.55;;;12.07;;
38937;SDS011;24727;51.974;20.868;2022-07-23T05:15:56;14.50;;;13.00;;
38937;SDS011;24727;51.974;20.868;2022-07-23T05:18:22;14.05;;;12.55;;
38937;SDS011;24727;51.974;20.868;2022-07-23T05:20:48;17.13;;;12.98;;
38937;SDS011;24727;51.974;20.868;2022-07-23T05:23:16;17.02;;;12.32;;
38937;SDS011;24727;51.974;20.868;2022-07-23T05:25:42;13.88;;;12.45;;
38937;SDS011;24727;51.974;20.868;2022-07-23T05:28:08;15.90;;;12.15;;
38937;SDS011;24727;51.974;20.868;2022-07-23T05:30:34;13.55;;;11.23;;
38937;SDS011;24727;51.974;20.868;2022-07-23T05:33:02;13.60;;;12.00;;
38937;SDS011;24727;51.974;20.868;2022-07-23T05:35:28;12.35;;;11.07;;
38937;SDS011;24727;51.974;20.868;2022-07-23T05:37:56;19.10;;;11.25;;
38937;SDS011;24727;51.974;20.868;2022-07-23T05:40:24;16.58;;;10.60;;
38937;SDS011;24727;51.974;20.868;2022-07-23T05:42:51;12.85;;;11.07;;
38937;SDS011;24727;51.974;20.868;2022-07-23T05:45:18;12.77;;;11.52;;
38937;SDS011;24727;51.974;20.868;2022-07-23T05:47:46;12.63;;;10.45;;
38937;SDS011;24727;51.974;20.868;2022-07-23T05:50:13;13.63;;;11.23;;
38937;SDS011;24727;51.974;20.868;2022-07-23T05:52:40;12.10;;;10.90;;
38937;SDS011;24727;51.974;20.868;2022-07-23T05:55:07;14.25;;;10.48;;
38937;SDS011;24727;51.974;20.868;2022-07-23T05:57:34;14.40;;;10.93;;
38937;SDS011;24727;51.974;20.868;2022-07-23T06:00:01;19.50;;;11.70;;
38937;SDS011;24727;51.974;20.868;2022-07-23T06:02:29;13.43;;;10.40;;
38937;SDS011;24727;51.974;20.868;2022-07-23T06:04:55;14.10;;;10.13;;
38937;SDS011;24727;51.974;20.868;2022-07-23T06:07:21;21.27;;;11.43;;
38937;SDS011;24727;51.974;20.868;2022-07-23T06:09:47;12.90;;;9.80;;
38937;SDS011;24727;51.974;20.868;2022-07-23T06:12:15;12.80;;;11.02;;
38937;SDS011;24727;51.974;20.868;2022-07-23T06:14:41;12.10;;;10.70;;
38937;SDS011;24727;51.974;20.868;2022-07-23T06:17:08;10.88;;;9.75;;
38937;SDS011;24727;51.974;20.868;2022-07-23T06:19:34;14.80;;;10.35;;
38937;SDS011;24727;51.974;20.868;2022-07-23T06:22:06;10.63;;;9.63;;
38937;SDS011;24727;51.974;20.868;2022-07-23T06:24:34;11.63;;;10.23;;
38937;SDS011;24727;51.974;20.868;2022-07-23T06:27:00;14.40;;;10.10;;
38937;SDS011;24727;51.974;20.868;2022-07-23T06:29:26;12.27;;;10.10;;
38937;SDS011;24727;51.974;20.868;2022-07-23T06:31:53;11.00;;;9.88;;
38937;SDS011;24727;51.974;20.868;2022-07-23T06:34:19;13.32;;;9.30;;
38937;SDS011;24727;51.974;20.868;2022-07-23T06:36:46;11.02;;;9.93;;
38937;SDS011;24727;51.974;20.868;2022-07-23T06:39:12;10.73;;;9.73;;
38937;SDS011;24727;51.974;20.868;2022-07-23T06:41:39;10.35;;;9.38;;
38937;SDS011;24727;51.974;20.868;2022-07-23T06:44:17;10.23;;;9.18;;
38937;SDS011;24727;51.974;20.868;2022-07-23T06:46:43;9.80;;;8.45;;
38937;SDS011;24727;51.974;20.868;2022-07-23T06:49:10;11.68;;;8.65;;
38937;SDS011;24727;51.974;20.868;2022-07-23T06:51:36;11.30;;;9.25;;
38937;SDS011;24727;51.974;20.868;2022-07-23T06:54:02;9.93;;;8.80;;
38937;SDS011;24727;51.974;20.868;2022-07-23T06:56:29;9.27;;;8.48;;
38937;SDS011;24727;51.974;20.868;2022-07-23T06:58:55;9.65;;;8.77;;
38937;SDS011;24727;51.974;20.868;2022-07-23T07:01:21;11.57;;;8.88;;
38937;SDS011;24727;51.974;20.868;2022-07-23T07:03:47;13.75;;;8.68;;
38937;SDS011;24727;51.974;20.868;2022-07-23T07:06:13;13.50;;;8.35;;
38937;SDS011;24727;51.974;20.868;2022-07-23T07:08:41;9.18;;;8.27;;
38937;SDS011;24727;51.974;20.868;2022-07-23T07:11:08;8.43;;;7.68;;
38937;SDS011;24727;51.974;20.868;2022-07-23T07:13:35;15.43;;;9.98;;
38937;SDS011;24727;51.974;20.868;2022-07-23T07:16:02;11.93;;;7.65;;
38937;SDS011;24727;51.974;20.868;2022-07-23T07:18:29;9.00;;;8.20;;
38937;SDS011;24727;51.974;20.868;2022-07-23T07:20:56;10.45;;;7.55;;
38937;SDS011;24727;51.974;20.868;2022-07-23T07:23:22;10.85;;;8.05;;
38937;SDS011;24727;51.974;20.868;2022-07-23T07:25:49;8.50;;;7.70;;
38937;SDS011;24727;51.974;20.868;2022-07-23T07:28:15;11.80;;;7.53;;
38937;SDS011;24727;51.974;20.868;2022-07-23T07:30:42;9.60;;;7.90;;
38937;SDS011;24727;51.974;20.868;2022-07-23T07:33:08;8.52;;;7.63;;
38937;SDS011;24727;51.974;20.868;2022-07-23T07:35:35;8.10;;;7.20;;
38937;SDS011;24727;51.974;20.868;2022-07-23T07:38:01;7.72;;;6.75;;
38937;SDS011;24727;51.974;20.868;2022-07-23T07:40:27;7.68;;;6.68;;
38937;SDS011;24727;51.974;20.868;2022-07-23T07:42:53;7.18;;;6.47;;
38937;SDS011;24727;51.974;20.868;2022-07-23T07:45:22;11.77;;;7.20;;
38937;SDS011;24727;51.974;20.868;2022-07-23T07:47:51;10.43;;;6.95;;
38937;SDS011;24727;51.974;20.868;2022-07-23T07:50:19;11.38;;;7.47;;
38937;SDS011;24727;51.974;20.868;2022-07-23T07:52:45;11.23;;;7.53;;
38937;SDS011;24727;51.974;20.868;2022-07-23T07:55:11;7.28;;;6.57;;
38937;SDS011;24727;51.974;20.868;2022-07-23T07:57:38;7.63;;;6.70;;
38937;SDS011;24727;51.974;20.868;2022-07-23T08:00:05;9.43;;;7.53;;
38937;SDS011;24727;51.974;20.868;2022-07-23T08:02:41;8.73;;;6.60;;
38937;SDS011;24727;51.974;20.868;2022-07-23T08:05:09;7.70;;;7.00;;
38937;SDS011;24727;51.974;20.868;2022-07-23T08:07:36;7.70;;;6.85;;
38937;SDS011;24727;51.974;20.868;2022-07-23T08:10:04;7.50;;;6.63;;
38937;SDS011;24727;51.974;20.868;2022-07-23T08:12:42;10.63;;;7.07;;
38937;SDS011;24727;51.974;20.868;2022-07-23T08:15:16;7.95;;;6.50;;
38937;SDS011;24727;51.974;20.868;2022-07-23T08:17:44;7.78;;;6.97;;
38937;SDS011;24727;51.974;20.868;2022-07-23T08:20:12;8.75;;;7.22;;
38937;SDS011;24727;51.974;20.868;2022-07-23T08:22:53;11.77;;;6.80;;
38937;SDS011;24727;51.974;20.868;2022-07-23T08:25:29;10.38;;;7.03;;
38937;SDS011;24727;51.974;20.868;2022-07-23T08:28:01;8.35;;;6.97;;
38937;SDS011;24727;51.974;20.868;2022-07-23T08:30:28;7.13;;;6.47;;
38937;SDS011;24727;51.974;20.868;2022-07-23T08:35:30;9.35;;;7.20;;
38937;SDS011;24727;51.974;20.868;2022-07-23T08:38:02;8.68;;;6.93;;
38937;SDS011;24727;51.974;20.868;2022-07-23T08:40:31;8.20;;;7.47;;
38937;SDS011;24727;51.974;20.868;2022-07-23T08:42:58;8.00;;;7.20;;
38937;SDS011;24727;51.974;20.868;2022-07-23T08:45:27;8.80;;;6.00;;
38937;SDS011;24727;51.974;20.868;2022-07-23T08:47:54;7.72;;;7.03;;
38937;SDS011;24727;51.974;20.868;2022-07-23T08:52:54;8.65;;;6.65;;
38937;SDS011;24727;51.974;20.868;2022-07-23T08:55:22;7.95;;;7.20;;
38937;SDS011;24727;51.974;20.868;2022-07-23T08:57:50;12.82;;;7.18;;
38937;SDS011;24727;51.974;20.868;2022-07-23T09:00:18;9.00;;;6.50;;
38937;SDS011;24727;51.974;20.868;2022-07-23T09:02:46;8.52;;;6.95;;
38937;SDS011;24727;51.974;20.868;2022-07-23T09:05:14;10.18;;;6.93;;
38937;SDS011;24727;51.974;20.868;2022-07-23T09:10:57;10.05;;;6.85;;
38937;SDS011;24727;51.974;20.868;2022-07-23T09:13:23;17.27;;;7.47;;
38937;SDS011;24727;51.974;20.868;2022-07-23T09:16:06;8.50;;;6.35;;
38937;SDS011;24727;51.974;20.868;2022-07-23T09:21:26;9.65;;;7.35;;
38937;SDS011;24727;51.974;20.868;2022-07-23T09:23:58;7.55;;;6.85;;
38937;SDS011;24727;51.974;20.868;2022-07-23T09:26:38;17.10;;;6.88;;
38937;SDS011;24727;51.974;20.868;2022-07-23T09:29:07;7.85;;;6.88;;
38937;SDS011;24727;51.974;20.868;2022-07-23T09:31:58;7.65;;;6.07;;
38937;SDS011;24727;51.974;20.868;2022-07-23T09:34:26;11.55;;;7.43;;
38937;SDS011;24727;51.974;20.868;2022-07-23T09:37:19;7.85;;;7.05;;
38937;SDS011;24727;51.974;20.868;2022-07-23T09:39:46;9.40;;;7.05;;
38937;SDS011;24727;51.974;20.868;2022-07-23T09:42:25;7.95;;;7.13;;
38937;SDS011;24727;51.974;20.868;2022-07-23T09:44:53;8.55;;;7.75;;
38937;SDS011;24727;51.974;20.868;2022-07-23T09:47:24;7.18;;;6.57;;
38937;SDS011;24727;51.974;20.868;2022-07-23T09:50:00;8.57;;;7.45;;
38937;SDS011;24727;51.974;20.868;2022-07-23T09:52:34;12.43;;;6.70;;
38937;SDS011;24727;51.974;20.868;2022-07-23T09:55:04;7.00;;;6.32;;
38937;SDS011;24727;51.974;20.868;2022-07-23T09:57:32;6.88;;;6.32;;
38937;SDS011;24727;51.974;20.868;2022-07-23T10:00:00;9.63;;;6.63;;
38937;SDS011;24727;51.974;20.868;2022-07-23T10:02:31;7.00;;;5.97;;
38937;SDS011;24727;51.974;20.868;2022-07-23T10:04:58;6.47;;;5.82;;
38937;SDS011;24727;51.974;20.868;2022-07-23T10:07:26;7.68;;;6.65;;
38937;SDS011;24727;51.974;20.868;2022-07-23T10:09:56;8.50;;;6.47;;
38937;SDS011;24727;51.974;20.868;2022-07-23T10:12:23;7.47;;;6.60;;
38937;SDS011;24727;51.974;20.868;2022-07-23T10:15:03;6.40;;;5.53;;
38937;SDS011;24727;51.974;20.868;2022-07-23T10:17:32;6.28;;;5.78;;
38937;SDS011;24727;51.974;20.868;2022-07-23T10:19:59;7.60;;;6.45;;
38937;SDS011;24727;51.974;20.868;2022-07-23T10:22:33;6.72;;;6.20;;
38937;SDS011;24727;51.974;20.868;2022-07-23T10:25:18;6.88;;;6.28;;
38937;SDS011;24727;51.974;20.868;2022-07-23T10:31:13;6.38;;;5.82;;
38937;SDS011;24727;51.974;20.868;2022-07-23T10:34:02;6.63;;;5.95;;
38937;SDS011;24727;51.974;20.868;2022-07-23T10:36:50;6.05;;;5.63;;
38937;SDS011;24727;51.974;20.868;2022-07-23T10:39:30;7.67;;;5.83;;
38937;SDS011;24727;51.974;20.868;2022-07-23T10:42:08;6.30;;;5.80;;
38937;SDS011;24727;51.974;20.868;2022-07-23T10:44:45;8.32;;;6.05;;
38937;SDS011;24727;51.974;20.868;2022-07-23T10:47:13;6.18;;;5.68;;
38937;SDS011;24727;51.974;20.868;2022-07-23T10:50:25;6.22;;;5.63;;
38937;SDS011;24727;51.974;20.868;2022-07-23T10:58:05;6.07;;;5.40;;
38937;SDS011;24727;51.974;20.868;2022-07-23T11:00:32;5.93;;;5.50;;
38937;SDS011;24727;51.974;20.868;2022-07-23T11:03:00;9.30;;;6.63;;
38937;SDS011;24727;51.974;20.868;2022-07-23T11:05:47;6.60;;;5.40;;
38937;SDS011;24727;51.974;20.868;2022-07-23T11:08:16;6.68;;;5.97;;
38937;SDS011;24727;51.974;20.868;2022-07-23T11:10:47;6.15;;;5.55;;
38937;SDS011;24727;51.974;20.868;2022-07-23T11:32:37;6.30;;;5.70;;
38937;SDS011;24727;51.974;20.868;2022-07-23T11:35:23;10.40;;;6.68;;
38937;SDS011;24727;51.974;20.868;2022-07-23T11:37:54;9.63;;;6.30;;
38937;SDS011;24727;51.974;20.868;2022-07-23T11:40:28;7.13;;;6.38;;
38937;SDS011;24727;51.974;20.868;2022-07-23T11:42:59;6.38;;;5.78;;
38937;SDS011;24727;51.974;20.868;2022-07-23T11:45:36;7.20;;;5.88;;
38937;SDS011;24727;51.974;20.868;2022-07-23T11:48:09;6.93;;;6.22;;
38937;SDS011;24727;51.974;20.868;2022-07-23T11:50:48;10.68;;;6.20;;
38937;SDS011;24727;51.974;20.868;2022-07-23T11:53:32;7.85;;;6.53;;
38937;SDS011;24727;51.974;20.868;2022-07-23T11:56:04;7.05;;;6.30;;
38937;SDS011;24727;51.974;20.868;2022-07-23T11:58:35;6.75;;;5.97;;
38937;SDS011;24727;51.974;20.868;2022-07-23T12:01:02;9.68;;;6.90;;
38937;SDS011;24727;51.974;20.868;2022-07-23T12:03:29;6.70;;;6.10;;
38937;SDS011;24727;51.974;20.868;2022-07-23T12:05:58;7.13;;;6.47;;
38937;SDS011;24727;51.974;20.868;2022-07-23T12:08:25;7.10;;;6.40;;
38937;SDS011;24727;51.974;20.868;2022-07-23T12:10:51;6.95;;;6.15;;
38937;SDS011;24727;51.974;20.868;2022-07-23T12:13:18;8.65;;;5.80;;
38937;SDS011;24727;51.974;20.868;2022-07-23T12:15:49;7.80;;;6.15;;
38937;SDS011;24727;51.974;20.868;2022-07-23T12:18:18;6.50;;;5.30;;
38937;SDS011;24727;51.974;20.868;2022-07-23T12:20:48;7.25;;;5.63;;
38937;SDS011;24727;51.974;20.868;2022-07-23T12:23:18;6.07;;;5.60;;
38937;SDS011;24727;51.974;20.868;2022-07-23T12:25:47;7.03;;;6.03;;
38937;SDS011;24727;51.974;20.868;2022-07-23T12:28:19;6.13;;;5.55;;
38937;SDS011;24727;51.974;20.868;2022-07-23T12:30:50;7.07;;;5.88;;
38937;SDS011;24727;51.974;20.868;2022-07-23T12:33:22;6.47;;;5.80;;
38937;SDS011;24727;51.974;20.868;2022-07-23T12:35:48;6.03;;;5.53;;
38937;SDS011;24727;51.974;20.868;2022-07-23T12:38:19;7.72;;;6.25;;
38937;SDS011;24727;51.974;20.868;2022-07-23T12:41:04;6.72;;;6.13;;
38937;SDS011;24727;51.974;20.868;2022-07-23T12:43:32;7.45;;;6.68;;
38937;SDS011;24727;51.974;20.868;2022-07-23T12:46:05;6.45;;;5.85;;
38937;SDS011;24727;51.974;20.868;2022-07-23T12:51:03;8.07;;;5.80;;
38937;SDS011;24727;51.974;20.868;2022-07-23T12:53:58;7.05;;;6.30;;
38937;SDS011;24727;51.974;20.868;2022-07-23T12:56:35;7.20;;;5.82;;
38937;SDS011;24727;51.974;20.868;2022-07-23T13:02:14;9.07;;;6.68;;
38937;SDS011;24727;51.974;20.868;2022-07-23T13:04:24;6.68;;;5.95;;
38937;SDS011;24727;51.974;20.868;2022-07-23T13:06:52;7.63;;;5.70;;
38937;SDS011;24727;51.974;20.868;2022-07-23T13:09:21;6.72;;;6.10;;
38937;SDS011;24727;51.974;20.868;2022-07-23T13:11:50;6.90;;;6.10;;
38937;SDS011;24727;51.974;20.868;2022-07-23T13:14:18;7.15;;;6.53;;
38937;SDS011;24727;51.974;20.868;2022-07-23T13:16:45;6.75;;;6.05;;
38937;SDS011;24727;51.974;20.868;2022-07-23T13:19:12;7.20;;;6.50;;
38937;SDS011;24727;51.974;20.868;2022-07-23T13:21:39;7.10;;;6.18;;
38937;SDS011;24727;51.974;20.868;2022-07-23T13:24:07;10.70;;;6.03;;
38937;SDS011;24727;51.974;20.868;2022-07-23T13:26:34;8.02;;;6.72;;
38937;SDS011;24727;51.974;20.868;2022-07-23T13:29:07;6.70;;;6.07;;
38937;SDS011;24727;51.974;20.868;2022-07-23T13:31:33;6.38;;;5.78;;
38937;SDS011;24727;51.974;20.868;2022-07-23T13:34:00;10.25;;;6.40;;
38937;SDS011;24727;51.974;20.868;2022-07-23T13:36:26;9.20;;;6.30;;
38937;SDS011;24727;51.974;20.868;2022-07-23T13:38:53;6.53;;;6.03;;
38937;SDS011;24727;51.974;20.868;2022-07-23T13:41:21;7.25;;;6.47;;
38937;SDS011;24727;51.974;20.868;2022-07-23T13:43:49;7.47;;;6.68;;
38937;SDS011;24727;51.974;20.868;2022-07-23T13:46:15;6.88;;;6.28;;
38937;SDS011;24727;51.974;20.868;2022-07-23T13:48:48;7.13;;;6.53;;
38937;SDS011;24727;51.974;20.868;2022-07-23T13:51:14;7.95;;;6.70;;
38937;SDS011;24727;51.974;20.868;2022-07-23T13:53:41;8.35;;;6.70;;
38937;SDS011;24727;51.974;20.868;2022-07-23T13:56:07;7.05;;;6.45;;
38937;SDS011;24727;51.974;20.868;2022-07-23T13:58:39;7.15;;;6.47;;
38937;SDS011;24727;51.974;20.868;2022-07-23T14:01:07;7.60;;;6.90;;
38937;SDS011;24727;51.974;20.868;2022-07-23T14:03:33;9.25;;;6.57;;
38937;SDS011;24727;51.974;20.868;2022-07-23T14:06:00;8.30;;;7.18;;
38937;SDS011;24727;51.974;20.868;2022-07-23T14:08:26;8.35;;;7.55;;
38937;SDS011;24727;51.974;20.868;2022-07-23T14:10:54;7.82;;;6.55;;
38937;SDS011;24727;51.974;20.868;2022-07-23T14:13:20;7.60;;;7.00;;
38937;SDS011;24727;51.974;20.868;2022-07-23T14:15:46;9.40;;;7.38;;
38937;SDS011;24727;51.974;20.868;2022-07-23T14:18:14;12.88;;;7.25;;
38937;SDS011;24727;51.974;20.868;2022-07-23T14:20:42;10.63;;;7.18;;
38937;SDS011;24727;51.974;20.868;2022-07-23T14:23:08;8.70;;;7.72;;
38937;SDS011;24727;51.974;20.868;2022-07-23T14:25:35;7.78;;;7.07;;
38937;SDS011;24727;51.974;20.868;2022-07-23T14:28:01;7.60;;;6.80;;
38937;SDS011;24727;51.974;20.868;2022-07-23T14:30:27;15.82;;;7.07;;
38937;SDS011;24727;51.974;20.868;2022-07-23T14:32:53;9.32;;;7.30;;
38937;SDS011;24727;51.974;20.868;2022-07-23T14:35:19;46.97;;;7.45;;
38937;SDS011;24727;51.974;20.868;2022-07-23T14:37:45;74.55;;;8.90;;
38937;SDS011;24727;51.974;20.868;2022-07-23T14:40:11;29.23;;;5.45;;
38937;SDS011;24727;51.974;20.868;2022-07-23T14:42:39;48.78;;;6.88;;
38937;SDS011;24727;51.974;20.868;2022-07-23T14:45:05;16.98;;;5.00;;
38937;SDS011;24727;51.974;20.868;2022-07-23T14:47:33;12.63;;;5.60;;
38937;SDS011;24727;51.974;20.868;2022-07-23T14:49:59;24.50;;;5.68;;
38937;SDS011;24727;51.974;20.868;2022-07-23T14:52:25;6.22;;;5.63;;
38937;SDS011;24727;51.974;20.868;2022-07-23T14:54:52;8.80;;;5.90;;
38937;SDS011;24727;51.974;20.868;2022-07-23T14:57:18;8.90;;;5.63;;
38937;SDS011;24727;51.974;20.868;2022-07-23T14:59:44;8.30;;;5.63;;
38937;SDS011;24727;51.974;20.868;2022-07-23T15:02:11;11.20;;;5.25;;
38937;SDS011;24727;51.974;20.868;2022-07-23T15:04:37;14.90;;;6.00;;
38937;SDS011;24727;51.974;20.868;2022-07-23T15:07:03;9.77;;;6.05;;
38937;SDS011;24727;51.974;20.868;2022-07-23T15:09:30;9.55;;;7.95;;
38937;SDS011;24727;51.974;20.868;2022-07-23T15:11:56;11.23;;;9.50;;
38937;SDS011;24727;51.974;20.868;2022-07-23T15:14:22;12.13;;;10.85;;
38937;SDS011;24727;51.974;20.868;2022-07-23T15:16:49;12.45;;;10.00;;